Bass Brook, Minnesota
Current Conditions -  °F | °C
As of 7:35 AM on Tuesday 21 Oct 2014 (Local Time) from KGPZ Reporting Station
Clear Clear  
Wind Chill: 33°   Ceiling: Unl
Heat Index: 37°   Visibility: 10mi
Dew Point: 34°   Wind: 6mph
Humidity: 87%   Direction: 130°SE
Pressure: 30.17"   Gusts: NA
Location:  47.2371°N, 93.6985°W
Report Text: KGPZ 211235Z AUTO 13005KT 10SM CLR 03/01 A3017 RMK AO1
Loading
Personal Weather Stations






























Interactive Weather Map
Tropical Storm Tracking
New forecast layout! Learn more

10-Day Weather Forecast

Advertisements
Track Severe Weather on mobile